createdAt,value
2019-03-28T00:00:36.732Z,1023.23
2019-03-28T00:01:36.707Z,1023.2
2019-03-28T00:02:37.033Z,1023.2
2019-03-28T00:03:36.657Z,1023.21
2019-03-28T00:04:36.633Z,1023.22
2019-03-28T00:05:36.609Z,1023.19
2019-03-28T00:06:36.582Z,1023.19
2019-03-28T00:07:36.559Z,1023.17
2019-03-28T00:08:36.538Z,1023.15
2019-03-28T00:09:36.511Z,1023.19
2019-03-28T00:10:36.485Z,1023.14
2019-03-28T00:11:36.461Z,1023.18
2019-03-28T00:12:36.437Z,1023.17
2019-03-28T00:13:36.505Z,1023.19
2019-03-28T00:14:36.387Z,1023.18
2019-03-28T00:15:36.364Z,1023.19
2019-03-28T00:16:36.338Z,1023.17
2019-03-28T00:17:36.393Z,1023.2
2019-03-28T00:18:36.289Z,1023.2
2019-03-28T00:19:36.265Z,1023.15
2019-03-28T00:20:36.239Z,1023.19
2019-03-28T00:21:36.214Z,1023.2
2019-03-28T00:22:36.190Z,1023.17
2019-03-28T00:23:36.165Z,1023.2
2019-03-28T00:24:36.140Z,1023.2
2019-03-28T00:25:36.116Z,1023.22
2019-03-28T00:26:36.092Z,1023.24
2019-03-28T00:27:36.068Z,1023.26
2019-03-28T00:28:36.257Z,1023.25
2019-03-28T00:29:36.019Z,1023.25
2019-03-28T00:30:35.994Z,1023.24
2019-03-28T00:31:35.969Z,1023.26
2019-03-28T00:32:35.950Z,1023.24
2019-03-28T00:33:35.921Z,1023.26
2019-03-28T00:34:35.897Z,1023.24
2019-03-28T00:35:35.870Z,1023.23
2019-03-28T00:36:35.846Z,1023.2
2019-03-28T00:37:35.822Z,1023.22
2019-03-28T00:38:35.797Z,1023.26
2019-03-28T00:39:35.773Z,1023.25
2019-03-28T00:40:35.749Z,1023.25
2019-03-28T00:41:35.724Z,1023.25
2019-03-28T00:42:35.700Z,1023.24
2019-03-28T00:43:35.675Z,1023.21
2019-03-28T00:44:35.649Z,1023.23
2019-03-28T00:45:35.626Z,1023.25
2019-03-28T00:46:35.600Z,1023.23
2019-03-28T00:47:36.154Z,1023.25
2019-03-28T00:48:35.552Z,1023.24
2019-03-28T00:49:35.528Z,1023.26
2019-03-28T00:50:35.502Z,1023.28
2019-03-28T00:51:35.478Z,1023.27
2019-03-28T00:52:35.454Z,1023.33
2019-03-28T00:53:35.432Z,1023.27
2019-03-28T00:54:35.407Z,1023.28
2019-03-28T00:55:35.382Z,1023.27
2019-03-28T00:56:45.189Z,1023.3
2019-03-28T00:57:35.332Z,1023.29
2019-03-28T00:58:35.307Z,1023.27
2019-03-28T00:59:35.283Z,1023.28
2019-03-28T01:00:35.259Z,1023.25
2019-03-28T01:01:35.234Z,1023.29
2019-03-28T01:02:35.210Z,1023.27
2019-03-28T01:03:35.261Z,1023.23
2019-03-28T01:04:35.161Z,1023.23
2019-03-28T01:05:35.137Z,1023.2
2019-03-28T01:06:35.112Z,1023.19
2019-03-28T01:07:35.087Z,1023.18
2019-03-28T01:08:35.063Z,1023.16
2019-03-28T01:09:35.038Z,1023.13
2019-03-28T01:10:35.013Z,1023.15
2019-03-28T01:11:34.989Z,1023.12
2019-03-28T01:12:34.964Z,1023.13
2019-03-28T01:13:34.942Z,1023.13
2019-03-28T01:14:34.917Z,1023.09
2019-03-28T01:15:34.889Z,1023.13
2019-03-28T01:16:34.866Z,1023.1
2019-03-28T01:17:34.851Z,1023.09
2019-03-28T01:18:34.818Z,1023.12
2019-03-28T01:19:35.219Z,1023.11
2019-03-28T01:20:34.768Z,1023.07
2019-03-28T01:21:34.746Z,1023.07
2019-03-28T01:22:34.720Z,1023.05
2019-03-28T01:23:34.693Z,1023.01
2019-03-28T01:24:34.675Z,1023.02
2019-03-28T01:25:34.643Z,1023.02
2019-03-28T01:26:34.621Z,1023
2019-03-28T01:27:34.594Z,1022.97
2019-03-28T01:28:34.574Z,1022.98
2019-03-28T01:29:34.547Z,1022.99
2019-03-28T01:30:34.521Z,1022.98
2019-03-28T01:31:34.496Z,1022.95
2019-03-28T01:32:34.472Z,1022.94
2019-03-28T01:33:34.448Z,1022.93
2019-03-28T01:34:34.423Z,1022.95
2019-03-28T01:35:34.397Z,1022.96
2019-03-28T01:36:34.372Z,1022.94
2019-03-28T01:37:34.348Z,1022.95
2019-03-28T01:38:34.323Z,1022.93
2019-03-28T01:39:34.321Z,1022.95
2019-03-28T01:40:34.277Z,1022.93
2019-03-28T01:41:34.250Z,1022.94
2019-03-28T01:42:34.225Z,1022.95
2019-03-28T01:43:34.201Z,1022.93
2019-03-28T01:44:34.176Z,1022.91
2019-03-28T01:45:34.151Z,1022.89
2019-03-28T01:46:34.125Z,1022.86
2019-03-28T01:47:34.102Z,1022.86
2019-03-28T01:48:34.076Z,1022.9
2019-03-28T01:49:34.054Z,1022.88
2019-03-28T01:50:34.028Z,1022.84
2019-03-28T01:51:34.003Z,1022.84
2019-03-28T01:52:33.978Z,1022.88
2019-03-28T01:53:33.952Z,1022.84
2019-03-28T01:54:33.928Z,1022.83
2019-03-28T01:55:33.903Z,1022.82
2019-03-28T01:56:33.879Z,1022.83
2019-03-28T01:57:33.856Z,1022.81
2019-03-28T01:58:33.829Z,1022.81
2019-03-28T01:59:33.803Z,1022.8
2019-03-28T02:00:33.780Z,1022.83
2019-03-28T02:01:33.754Z,1022.81
2019-03-28T02:02:33.734Z,1022.82
2019-03-28T02:03:33.731Z,1022.83
2019-03-28T02:04:33.681Z,1022.84
2019-03-28T02:05:33.656Z,1022.89
2019-03-28T02:06:34.176Z,1022.87
2019-03-28T02:07:33.606Z,1022.87
2019-03-28T02:08:33.581Z,1022.93
2019-03-28T02:09:33.557Z,1022.92
2019-03-28T02:10:33.531Z,1022.91
2019-03-28T02:11:33.508Z,1022.92
2019-03-28T02:12:33.482Z,1022.92
2019-03-28T02:13:33.457Z,1022.93
2019-03-28T02:14:33.431Z,1022.9
2019-03-28T02:15:33.407Z,1022.92
2019-03-28T02:16:33.385Z,1022.96
2019-03-28T02:17:33.358Z,1022.93
2019-03-28T02:18:33.331Z,1022.95
2019-03-28T02:19:33.309Z,1022.92
2019-03-28T02:20:33.283Z,1022.96
2019-03-28T02:21:33.257Z,1022.92
2019-03-28T02:22:33.232Z,1022.9
2019-03-28T02:23:33.208Z,1022.89
2019-03-28T02:24:33.185Z,1022.9
2019-03-28T02:25:33.160Z,1022.9
2019-03-28T02:26:33.133Z,1022.92
2019-03-28T02:27:33.108Z,1022.9
2019-03-28T02:28:33.083Z,1022.92
2019-03-28T02:29:33.213Z,1022.91
2019-03-28T02:30:33.035Z,1022.91
2019-03-28T02:31:33.012Z,1022.97
2019-03-28T02:32:33.789Z,1022.98
2019-03-28T02:33:32.958Z,1022.95
2019-03-28T02:34:32.934Z,1022.95
2019-03-28T02:35:32.909Z,1022.93
2019-03-28T02:36:32.884Z,1022.95
2019-03-28T02:37:32.858Z,1022.91
2019-03-28T02:38:32.836Z,1022.91
2019-03-28T02:39:32.809Z,1022.93
2019-03-28T02:40:32.787Z,1022.91
2019-03-28T02:41:32.764Z,1022.98
2019-03-28T02:42:32.738Z,1022.96
2019-03-28T02:43:32.711Z,1022.97
2019-03-28T02:44:32.688Z,1023
2019-03-28T02:45:32.661Z,1022.97
2019-03-28T02:46:32.635Z,1022.95
2019-03-28T02:47:32.610Z,1022.94
2019-03-28T02:48:32.585Z,1022.92
2019-03-28T02:49:32.564Z,1022.91
2019-03-28T02:50:32.535Z,1022.94
2019-03-28T02:51:32.509Z,1022.96
2019-03-28T02:52:32.486Z,1022.94
2019-03-28T02:53:32.461Z,1022.95
2019-03-28T02:54:32.436Z,1022.97
2019-03-28T02:55:32.415Z,1022.96
2019-03-28T02:56:32.386Z,1022.94
2019-03-28T02:57:40.578Z,1022.97
2019-03-28T02:58:32.336Z,1022.97
2019-03-28T02:59:32.324Z,1022.95
2019-03-28T03:00:32.288Z,1023.01
2019-03-28T03:01:32.260Z,1023.04
2019-03-28T03:02:32.448Z,1023.05
2019-03-28T03:03:32.211Z,1023.04
2019-03-28T03:04:32.188Z,1023.09
2019-03-28T03:05:32.161Z,1023.1
2019-03-28T03:06:32.138Z,1023.09
2019-03-28T03:07:32.114Z,1023.07
2019-03-28T03:08:32.088Z,1023.07
2019-03-28T03:09:32.063Z,1023.09
2019-03-28T03:10:32.037Z,1023.09
2019-03-28T03:11:32.013Z,1023.08
2019-03-28T03:12:31.993Z,1023.1
2019-03-28T03:13:32.091Z,1023.09
2019-03-28T03:14:31.942Z,1023.09
2019-03-28T03:15:31.919Z,1023.09
2019-03-28T03:16:31.889Z,1023.1
2019-03-28T03:17:31.868Z,1023.09
2019-03-28T03:18:31.842Z,1023.11
2019-03-28T03:19:31.816Z,1023.12
2019-03-28T03:20:31.789Z,1023.14
2019-03-28T03:21:31.764Z,1023.14
2019-03-28T03:22:31.739Z,1023.17
2019-03-28T03:23:31.713Z,1023.13
2019-03-28T03:24:31.694Z,1023.15
2019-03-28T03:25:31.669Z,1023.13
2019-03-28T03:26:31.639Z,1023.13
2019-03-28T03:27:31.614Z,1023.16
2019-03-28T03:28:31.690Z,1023.17
2019-03-28T03:29:31.573Z,1023.14
2019-03-28T03:30:32.118Z,1023.18
2019-03-28T03:31:31.525Z,1023.21
2019-03-28T03:32:31.507Z,1023.19
2019-03-28T03:33:31.463Z,1023.18
2019-03-28T03:34:32.727Z,1023.22
2019-03-28T03:35:31.412Z,1023.22
2019-03-28T03:36:31.387Z,1023.2
2019-03-28T03:37:31.363Z,1023.19
2019-03-28T03:38:31.337Z,1023.23
2019-03-28T03:39:31.316Z,1023.24
2019-03-28T03:40:31.287Z,1023.22
2019-03-28T03:41:31.264Z,1023.24
2019-03-28T03:42:31.236Z,1023.21
2019-03-28T03:43:31.218Z,1023.25
2019-03-28T03:44:31.186Z,1023.24
2019-03-28T03:45:31.161Z,1023.26
2019-03-28T03:46:31.137Z,1023.24
2019-03-28T03:47:31.110Z,1023.27
2019-03-28T03:48:31.086Z,1023.24
2019-03-28T03:49:31.059Z,1023.28
2019-03-28T03:50:31.060Z,1023.25
2019-03-28T03:51:31.014Z,1023.24
2019-03-28T03:52:30.986Z,1023.29
2019-03-28T03:53:30.958Z,1023.25
2019-03-28T03:54:30.941Z,1023.25
2019-03-28T03:55:30.915Z,1023.27
2019-03-28T03:56:30.890Z,1023.24
2019-03-28T03:57:30.860Z,1023.23
2019-03-28T03:58:30.835Z,1023.27
2019-03-28T03:59:30.811Z,1023.27
2019-03-28T04:00:30.783Z,1023.29
2019-03-28T04:01:30.760Z,1023.31
2019-03-28T04:02:30.739Z,1023.28
2019-03-28T04:03:30.708Z,1023.28
2019-03-28T04:04:30.683Z,1023.28
2019-03-28T04:05:30.657Z,1023.25
2019-03-28T04:06:30.633Z,1023.25
2019-03-28T04:07:30.607Z,1023.3
2019-03-28T04:08:30.596Z,1023.27
2019-03-28T04:09:30.558Z,1023.29
2019-03-28T04:10:30.537Z,1023.32
2019-03-28T04:11:30.507Z,1023.33
2019-03-28T04:12:30.481Z,1023.35
2019-03-28T04:13:30.456Z,1023.38
2019-03-28T04:14:30.432Z,1023.37
2019-03-28T04:15:30.407Z,1023.41
2019-03-28T04:16:30.381Z,1023.37
2019-03-28T04:17:30.360Z,1023.41
2019-03-28T04:18:30.332Z,1023.39
2019-03-28T04:19:30.315Z,1023.37
2019-03-28T04:20:30.282Z,1023.42
2019-03-28T04:21:30.256Z,1023.42
2019-03-28T04:22:30.231Z,1023.4
2019-03-28T04:23:30.205Z,1023.46
2019-03-28T04:24:30.182Z,1023.44
2019-03-28T04:25:30.155Z,1023.44
2019-03-28T04:26:30.149Z,1023.46
2019-03-28T04:27:30.106Z,1023.45
2019-03-28T04:28:31.940Z,1023.48
2019-03-28T04:29:30.614Z,1023.5
2019-03-28T04:30:30.033Z,1023.51
2019-03-28T04:31:30.005Z,1023.5
2019-03-28T04:32:29.983Z,1023.5
2019-03-28T04:33:29.952Z,1023.52
2019-03-28T04:34:29.930Z,1023.48
2019-03-28T04:35:29.903Z,1023.5
2019-03-28T04:36:29.878Z,1023.5
2019-03-28T04:37:29.858Z,1023.5
2019-03-28T04:38:29.829Z,1023.5
2019-03-28T04:39:29.803Z,1023.48
2019-03-28T04:40:29.778Z,1023.49
2019-03-28T04:41:29.753Z,1023.51
2019-03-28T04:42:29.727Z,1023.51
2019-03-28T04:43:29.703Z,1023.47
2019-03-28T04:44:29.676Z,1023.49
2019-03-28T04:45:29.652Z,1023.49
2019-03-28T04:46:29.654Z,1023.5
2019-03-28T04:47:29.601Z,1023.51
2019-03-28T04:48:29.578Z,1023.52
2019-03-28T04:49:29.551Z,1023.54
2019-03-28T04:50:29.526Z,1023.52
2019-03-28T04:51:29.500Z,1023.58
2019-03-28T04:52:31.825Z,1023.61
2019-03-28T04:53:29.735Z,1023.59
2019-03-28T04:54:29.565Z,1023.57
2019-03-28T04:55:29.400Z,1023.6
2019-03-28T04:56:29.376Z,1023.6
2019-03-28T04:57:29.616Z,1023.6
2019-03-28T04:58:29.325Z,1023.6
2019-03-28T04:59:29.301Z,1023.6
2019-03-28T05:00:29.275Z,1023.63
2019-03-28T05:01:29.249Z,1023.6
2019-03-28T05:02:29.225Z,1023.6
2019-03-28T05:03:29.200Z,1023.62
2019-03-28T05:04:29.173Z,1023.63
2019-03-28T05:05:29.149Z,1023.64
2019-03-28T05:06:29.123Z,1023.66
2019-03-28T05:07:29.098Z,1023.65
2019-03-28T05:08:29.073Z,1023.66
2019-03-28T05:09:29.048Z,1023.66
2019-03-28T05:10:29.023Z,1023.68
2019-03-28T05:11:29.002Z,1023.73
2019-03-28T05:12:28.973Z,1023.72
2019-03-28T05:13:28.948Z,1023.71
2019-03-28T05:14:28.923Z,1023.72
2019-03-28T05:15:28.897Z,1023.74
2019-03-28T05:16:28.873Z,1023.71
2019-03-28T05:17:28.847Z,1023.69
2019-03-28T05:18:28.822Z,1023.7
2019-03-28T05:19:28.796Z,1023.71
2019-03-28T05:20:28.769Z,1023.71
2019-03-28T05:21:28.746Z,1023.69
2019-03-28T05:22:28.725Z,1023.73
2019-03-28T05:23:28.698Z,1023.73
2019-03-28T05:24:28.670Z,1023.72
2019-03-28T05:25:28.645Z,1023.75
2019-03-28T05:26:28.619Z,1023.73
2019-03-28T05:27:28.595Z,1023.73
2019-03-28T05:28:28.568Z,1023.75
2019-03-28T05:29:28.543Z,1023.74
2019-03-28T05:30:28.518Z,1023.76
2019-03-28T05:31:28.493Z,1023.8
2019-03-28T05:32:28.467Z,1023.78
2019-03-28T05:33:28.443Z,1023.78
2019-03-28T05:34:28.419Z,1023.82
2019-03-28T05:35:28.392Z,1023.82
2019-03-28T05:36:28.908Z,1023.86
2019-03-28T05:37:28.545Z,1023.81
2019-03-28T05:38:28.612Z,1023.83
2019-03-28T05:39:28.292Z,1023.82
2019-03-28T05:40:28.266Z,1023.82
2019-03-28T05:41:28.241Z,1023.8
2019-03-28T05:42:28.214Z,1023.82
2019-03-28T05:43:28.190Z,1023.87
2019-03-28T05:44:28.165Z,1023.86
2019-03-28T05:45:28.140Z,1023.91
2019-03-28T05:46:28.114Z,1023.88
2019-03-28T05:47:28.088Z,1023.88
2019-03-28T05:48:28.063Z,1023.88
2019-03-28T05:49:28.038Z,1023.86
2019-03-28T05:50:28.065Z,1023.84
2019-03-28T05:51:27.988Z,1023.88
2019-03-28T05:52:27.963Z,1023.86
2019-03-28T05:53:27.938Z,1023.82
2019-03-28T05:54:27.913Z,1023.85
2019-03-28T05:55:27.888Z,1023.82
2019-03-28T05:56:27.862Z,1023.82
2019-03-28T05:57:27.838Z,1023.81
2019-03-28T05:58:27.812Z,1023.86
2019-03-28T05:59:27.787Z,1023.84
2019-03-28T06:00:27.760Z,1023.9
2019-03-28T06:01:27.736Z,1023.85
2019-03-28T06:02:27.712Z,1023.87
2019-03-28T06:03:27.686Z,1023.86
2019-03-28T06:04:27.659Z,1023.88
2019-03-28T06:05:27.636Z,1023.89
2019-03-28T06:06:27.611Z,1023.9
2019-03-28T06:07:27.586Z,1023.91
2019-03-28T06:08:28.242Z,1023.94
2019-03-28T06:09:27.534Z,1023.94
2019-03-28T06:10:27.510Z,1023.93
2019-03-28T06:11:28.517Z,1023.93
2019-03-28T06:12:27.458Z,1023.88
2019-03-28T06:13:27.434Z,1023.9
2019-03-28T06:14:28.611Z,1023.88
2019-03-28T06:15:27.382Z,1023.88
2019-03-28T06:16:27.363Z,1023.88
2019-03-28T06:17:27.402Z,1023.88
2019-03-28T06:18:27.312Z,1023.9
2019-03-28T06:19:27.285Z,1023.91
2019-03-28T06:20:27.260Z,1023.87
2019-03-28T06:21:27.234Z,1023.86
2019-03-28T06:22:27.262Z,1023.88
2019-03-28T06:23:27.186Z,1023.84
2019-03-28T06:24:27.160Z,1023.87
2019-03-28T06:25:27.138Z,1023.87
2019-03-28T06:26:27.381Z,1023.87
2019-03-28T06:27:27.087Z,1023.85
2019-03-28T06:28:27.069Z,1023.84
2019-03-28T06:29:27.037Z,1023.83
2019-03-28T06:30:27.013Z,1023.89
2019-03-28T06:31:26.988Z,1023.87
2019-03-28T06:32:26.965Z,1023.83
2019-03-28T06:33:26.937Z,1023.86
2019-03-28T06:34:26.914Z,1023.83
2019-03-28T06:35:26.889Z,1023.87
2019-03-28T06:36:27.191Z,1023.83
2019-03-28T06:37:26.966Z,1023.84
2019-03-28T06:38:26.815Z,1023.81
2019-03-28T06:39:26.794Z,1023.86
2019-03-28T06:40:26.772Z,1023.89
2019-03-28T06:41:26.745Z,1023.86
2019-03-28T06:42:26.718Z,1023.88
2019-03-28T06:43:26.694Z,1023.86
2019-03-28T06:44:26.668Z,1023.87
2019-03-28T06:45:26.645Z,1023.85
2019-03-28T06:46:26.620Z,1023.86
2019-03-28T06:47:26.597Z,1023.84
2019-03-28T06:48:26.571Z,1023.86
2019-03-28T06:49:26.547Z,1023.88
2019-03-28T06:50:26.523Z,1023.89
2019-03-28T06:51:26.500Z,1023.87
2019-03-28T06:52:26.473Z,1023.89
2019-03-28T06:53:26.455Z,1023.89
2019-03-28T06:54:26.424Z,1023.81
2019-03-28T06:55:26.413Z,1023.81
2019-03-28T06:56:26.376Z,1023.76
2019-03-28T06:57:26.351Z,1023.75
2019-03-28T06:58:26.326Z,1023.75
2019-03-28T06:59:36.499Z,1023.73
2019-03-28T07:00:26.280Z,1023.78
2019-03-28T07:01:26.254Z,1023.73
2019-03-28T07:02:26.462Z,1023.76
2019-03-28T07:03:26.236Z,1023.77
2019-03-28T07:04:26.182Z,1023.79
2019-03-28T07:05:26.158Z,1023.81
2019-03-28T07:06:26.133Z,1023.79
2019-03-28T07:07:26.109Z,1023.81
2019-03-28T07:08:26.283Z,1023.82
2019-03-28T07:09:26.311Z,1023.83
2019-03-28T07:10:26.036Z,1023.86
2019-03-28T07:11:26.287Z,1023.85
2019-03-28T07:12:26.362Z,1023.89
2019-03-28T07:13:26.388Z,1023.87
2019-03-28T07:14:26.186Z,1023.86
2019-03-28T07:15:26.222Z,1023.85
2019-03-28T07:16:26.129Z,1023.84
2019-03-28T07:17:26.196Z,1023.87
2019-03-28T07:18:26.189Z,1023.89
2019-03-28T07:19:26.082Z,1023.87
2019-03-28T07:20:26.421Z,1023.92
2019-03-28T07:21:26.231Z,1023.95
2019-03-28T07:22:26.282Z,1023.9
2019-03-28T07:23:25.949Z,1023.92
2019-03-28T07:24:25.702Z,1023.93
2019-03-28T07:25:25.847Z,1023.89
2019-03-28T07:26:26.257Z,1023.9
2019-03-28T07:27:25.629Z,1023.92
2019-03-28T07:28:25.605Z,1023.9
2019-03-28T07:29:25.725Z,1023.9
2019-03-28T07:30:25.583Z,1023.9
2019-03-28T07:31:25.986Z,1023.95
2019-03-28T07:32:25.512Z,1023.96
2019-03-28T07:33:25.488Z,1023.94
2019-03-28T07:34:25.464Z,1023.97
2019-03-28T07:35:25.444Z,1023.98
2019-03-28T07:36:25.418Z,1023.98
2019-03-28T07:37:27.923Z,1023.99
2019-03-28T07:38:25.371Z,1024
2019-03-28T07:39:25.452Z,1024.01
2019-03-28T07:40:25.683Z,1023.99
2019-03-28T07:41:25.301Z,1024.01
2019-03-28T07:42:25.277Z,1024
2019-03-28T07:43:25.473Z,1024.01
2019-03-28T07:44:25.700Z,1024.1
2019-03-28T07:45:25.320Z,1024.09
2019-03-28T07:46:25.186Z,1024.12
2019-03-28T07:47:25.162Z,1024.1
2019-03-28T07:48:25.139Z,1024.09
2019-03-28T07:49:25.120Z,1024.06
2019-03-28T07:50:25.092Z,1024.05
2019-03-28T07:51:25.069Z,1024.04
2019-03-28T07:52:25.049Z,1024.05
2019-03-28T07:53:25.087Z,1024.04
2019-03-28T07:54:25.001Z,1024.02
2019-03-28T07:55:24.979Z,1023.98
2019-03-28T07:56:24.957Z,1024.02
2019-03-28T07:57:24.933Z,1024.08
2019-03-28T07:58:24.911Z,1024.1
2019-03-28T07:59:24.889Z,1024.17
2019-03-28T08:00:24.866Z,1024.15
2019-03-28T08:01:25.166Z,1024.14
2019-03-28T08:02:24.822Z,1024.16
2019-03-28T08:03:24.800Z,1024.17
2019-03-28T08:04:24.780Z,1024.13
2019-03-28T08:05:24.755Z,1024.2
2019-03-28T08:06:24.732Z,1024.2
2019-03-28T08:07:24.712Z,1024.24
2019-03-28T08:08:37.986Z,1024.23
2019-03-28T08:09:35.972Z,1024.26
2019-03-28T08:10:24.645Z,1024.24
2019-03-28T08:11:24.644Z,1024.26
2019-03-28T08:12:24.600Z,1024.27
2019-03-28T08:13:24.579Z,1024.27
2019-03-28T08:14:24.556Z,1024.25
2019-03-28T08:15:24.534Z,1024.25
2019-03-28T08:16:24.735Z,1024.25
2019-03-28T08:17:24.490Z,1024.29
2019-03-28T08:18:24.467Z,1024.35
2019-03-28T08:19:24.444Z,1024.37
2019-03-28T08:20:24.424Z,1024.39
2019-03-28T08:21:24.402Z,1024.41
2019-03-28T08:22:24.380Z,1024.4
2019-03-28T08:23:24.357Z,1024.44
2019-03-28T08:24:24.813Z,1024.38
2019-03-28T08:25:24.693Z,1024.39
2019-03-28T08:26:24.291Z,1024.44
2019-03-28T08:27:24.270Z,1024.44
2019-03-28T08:28:24.246Z,1024.47
2019-03-28T08:29:24.224Z,1024.47
2019-03-28T08:30:24.201Z,1024.47
2019-03-28T08:31:24.178Z,1024.43
2019-03-28T08:32:24.157Z,1024.46
2019-03-28T08:33:24.136Z,1024.43
2019-03-28T08:34:24.112Z,1024.45
2019-03-28T08:35:24.091Z,1024.42
2019-03-28T08:36:24.069Z,1024.46
2019-03-28T08:37:24.046Z,1024.45
2019-03-28T08:38:24.023Z,1024.46
2019-03-28T08:39:24.004Z,1024.48
2019-03-28T08:40:24.098Z,1024.51
2019-03-28T08:41:23.957Z,1024.54
2019-03-28T08:42:23.943Z,1024.56
2019-03-28T08:43:23.923Z,1024.54
2019-03-28T08:44:23.892Z,1024.51
2019-03-28T08:45:23.870Z,1024.52
2019-03-28T08:46:23.847Z,1024.51
2019-03-28T08:47:23.828Z,1024.5
2019-03-28T08:48:23.804Z,1024.54
2019-03-28T08:49:23.782Z,1024.52
2019-03-28T08:50:23.762Z,1024.55
2019-03-28T08:51:27.031Z,1024.5
2019-03-28T08:52:23.715Z,1024.54
2019-03-28T08:53:23.693Z,1024.52
2019-03-28T08:54:23.670Z,1024.5
2019-03-28T08:55:23.650Z,1024.49
2019-03-28T08:56:23.627Z,1024.46
2019-03-28T08:57:23.605Z,1024.47
2019-03-28T08:58:23.584Z,1024.46
2019-03-28T08:59:23.564Z,1024.49
2019-03-28T09:00:32.820Z,1024.47
2019-03-28T09:01:23.518Z,1024.47
2019-03-28T09:02:23.497Z,1024.44
2019-03-28T09:03:23.475Z,1024.5
2019-03-28T09:04:23.454Z,1024.49
2019-03-28T09:05:23.432Z,1024.44
2019-03-28T09:06:23.411Z,1024.43
2019-03-28T09:07:23.388Z,1024.44
2019-03-28T09:08:23.367Z,1024.47
2019-03-28T09:09:23.352Z,1024.43
2019-03-28T09:10:23.327Z,1024.46
2019-03-28T09:11:23.307Z,1024.48
2019-03-28T09:12:23.287Z,1024.48
2019-03-28T09:13:23.271Z,1024.48
2019-03-28T09:14:23.249Z,1024.5
2019-03-28T09:15:23.228Z,1024.46
2019-03-28T09:16:23.207Z,1024.49
2019-03-28T09:17:23.888Z,1024.49
2019-03-28T09:18:23.167Z,1024.49
2019-03-28T09:19:23.148Z,1024.52
2019-03-28T09:20:23.130Z,1024.46
2019-03-28T09:21:23.110Z,1024.44
2019-03-28T09:22:23.092Z,1024.46
2019-03-28T09:23:23.074Z,1024.45
2019-03-28T09:24:23.054Z,1024.46
2019-03-28T09:25:23.036Z,1024.46
2019-03-28T09:26:23.018Z,1024.48
2019-03-28T09:27:22.998Z,1024.55
2019-03-28T09:28:22.988Z,1024.57
2019-03-28T09:29:23.392Z,1024.58
2019-03-28T09:30:22.951Z,1024.55
2019-03-28T09:31:22.926Z,1024.53
2019-03-28T09:32:22.906Z,1024.56
2019-03-28T09:33:22.889Z,1024.52
2019-03-28T09:34:22.872Z,1024.55
2019-03-28T09:35:22.854Z,1024.51
2019-03-28T09:36:22.835Z,1024.5
2019-03-28T09:37:22.815Z,1024.51
2019-03-28T09:38:22.798Z,1024.45
2019-03-28T09:39:24.815Z,1024.48
2019-03-28T09:40:22.761Z,1024.48
2019-03-28T09:41:22.743Z,1024.42
2019-03-28T09:42:22.726Z,1024.4
2019-03-28T09:43:22.707Z,1024.44
2019-03-28T09:44:22.690Z,1024.44
2019-03-28T09:45:23.037Z,1024.42
2019-03-28T09:46:22.958Z,1024.45
2019-03-28T09:47:22.637Z,1024.46
2019-03-28T09:48:22.619Z,1024.47
2019-03-28T09:49:22.602Z,1024.51
2019-03-28T09:50:22.587Z,1024.47
2019-03-28T09:51:22.572Z,1024.51
2019-03-28T09:52:22.548Z,1024.54
2019-03-28T09:53:22.534Z,1024.54
2019-03-28T09:54:22.512Z,1024.53
2019-03-28T09:55:22.495Z,1024.59
2019-03-28T09:56:22.477Z,1024.51
2019-03-28T09:57:22.459Z,1024.58
2019-03-28T09:58:22.439Z,1024.58
2019-03-28T09:59:22.422Z,1024.56
2019-03-28T10:00:22.404Z,1024.58
2019-03-28T10:01:22.462Z,1024.53
2019-03-28T10:02:22.369Z,1024.49
2019-03-28T10:03:22.348Z,1024.47
2019-03-28T10:04:22.521Z,1024.49
2019-03-28T10:05:22.312Z,1024.46
2019-03-28T10:06:22.294Z,1024.4
2019-03-28T10:07:22.278Z,1024.46
2019-03-28T10:08:22.263Z,1024.44
2019-03-28T10:09:22.242Z,1024.49
2019-03-28T10:10:22.226Z,1024.47
2019-03-28T10:11:22.209Z,1024.47
2019-03-28T10:12:22.188Z,1024.43
2019-03-28T10:13:22.173Z,1024.43
2019-03-28T10:14:22.152Z,1024.46
2019-03-28T10:15:22.139Z,1024.39
2019-03-28T10:16:22.121Z,1024.39
2019-03-28T10:17:22.100Z,1024.37
2019-03-28T10:18:22.083Z,1024.39
2019-03-28T10:19:22.067Z,1024.36
2019-03-28T10:20:22.051Z,1024.35
2019-03-28T10:21:22.033Z,1024.34
2019-03-28T10:22:22.413Z,1024.36
2019-03-28T10:23:21.998Z,1024.35
2019-03-28T10:24:21.986Z,1024.34
2019-03-28T10:25:21.964Z,1024.3
2019-03-28T10:26:21.947Z,1024.34
2019-03-28T10:27:21.929Z,1024.33
2019-03-28T10:28:21.913Z,1024.33
2019-03-28T10:29:21.895Z,1024.31
2019-03-28T10:30:21.880Z,1024.31
2019-03-28T10:31:21.862Z,1024.3
2019-03-28T10:32:21.844Z,1024.32
2019-03-28T10:33:21.829Z,1024.34
2019-03-28T10:34:21.811Z,1024.36
2019-03-28T10:35:21.796Z,1024.33
2019-03-28T10:36:21.793Z,1024.31
2019-03-28T10:37:21.763Z,1024.31
2019-03-28T10:38:21.753Z,1024.31
2019-03-28T10:39:21.731Z,1024.29
2019-03-28T10:40:21.713Z,1024.33
2019-03-28T10:41:21.696Z,1024.33
2019-03-28T10:42:21.679Z,1024.36
2019-03-28T10:43:21.664Z,1024.4
2019-03-28T10:44:21.647Z,1024.39
2019-03-28T10:45:21.868Z,1024.35
2019-03-28T10:46:21.615Z,1024.37
2019-03-28T10:47:21.596Z,1024.39
2019-03-28T10:48:23.425Z,1024.37
2019-03-28T10:49:21.565Z,1024.34
2019-03-28T10:50:21.548Z,1024.31
2019-03-28T10:51:22.099Z,1024.34
2019-03-28T10:52:21.515Z,1024.41
2019-03-28T10:53:21.498Z,1024.36
2019-03-28T10:54:21.482Z,1024.34
2019-03-28T10:55:21.764Z,1024.32
2019-03-28T10:56:22.756Z,1024.32
2019-03-28T10:57:29.669Z,1024.32
2019-03-28T10:58:21.420Z,1024.33
2019-03-28T10:59:23.716Z,1024.28
2019-03-28T11:00:24.186Z,1024.27
2019-03-28T11:01:32.673Z,1024.35
2019-03-28T11:02:21.360Z,1024.36
2019-03-28T11:03:21.344Z,1024.34
2019-03-28T11:04:22.550Z,1024.35
2019-03-28T11:05:21.317Z,1024.37
2019-03-28T11:06:21.298Z,1024.35
2019-03-28T11:07:21.283Z,1024.37
2019-03-28T11:08:21.269Z,1024.3
2019-03-28T11:09:21.255Z,1024.31
2019-03-28T11:10:21.239Z,1024.32
2019-03-28T11:11:21.227Z,1024.29
2019-03-28T11:12:21.206Z,1024.29
2019-03-28T11:13:21.192Z,1024.28
2019-03-28T11:14:21.538Z,1024.29
2019-03-28T11:15:21.160Z,1024.24
2019-03-28T11:16:21.147Z,1024.24
2019-03-28T11:17:21.750Z,1024.26
2019-03-28T11:18:21.118Z,1024.3
2019-03-28T11:19:21.102Z,1024.27
2019-03-28T11:20:21.085Z,1024.27
2019-03-28T11:21:21.072Z,1024.24
2019-03-28T11:22:21.056Z,1024.23
2019-03-28T11:23:21.041Z,1024.27
2019-03-28T11:24:21.300Z,1024.25
2019-03-28T11:25:21.012Z,1024.34
2019-03-28T11:26:20.996Z,1024.3
2019-03-28T11:27:20.981Z,1024.3
2019-03-28T11:28:23.403Z,1024.32
2019-03-28T11:29:20.951Z,1024.31
2019-03-28T11:30:20.936Z,1024.34
2019-03-28T11:31:20.921Z,1024.3
2019-03-28T11:32:20.909Z,1024.3
2019-03-28T11:33:20.892Z,1024.3
2019-03-28T11:34:20.877Z,1024.39
2019-03-28T11:35:20.863Z,1024.38
2019-03-28T11:36:20.847Z,1024.4
2019-03-28T11:37:26.207Z,1024.36
2019-03-28T11:38:20.818Z,1024.39
2019-03-28T11:39:20.981Z,1024.41
2019-03-28T11:40:20.786Z,1024.36
2019-03-28T11:41:20.771Z,1024.34
2019-03-28T11:42:20.760Z,1024.35
2019-03-28T11:43:20.742Z,1024.33
2019-03-28T11:44:20.726Z,1024.37
2019-03-28T11:45:20.715Z,1024.41
2019-03-28T11:46:20.694Z,1024.35
2019-03-28T11:47:22.122Z,1024.36
2019-03-28T11:48:20.663Z,1024.36
2019-03-28T11:49:20.647Z,1024.3
2019-03-28T11:50:20.634Z,1024.33
2019-03-28T11:51:20.613Z,1024.32
2019-03-28T11:52:20.686Z,1024.34
2019-03-28T11:53:20.609Z,1024.35
2019-03-28T11:54:20.565Z,1024.33
2019-03-28T11:55:20.545Z,1024.37
2019-03-28T11:56:20.531Z,1024.36
2019-03-28T11:57:20.515Z,1024.42
2019-03-28T11:58:20.497Z,1024.4
2019-03-28T11:59:20.490Z,1024.43
2019-03-28T12:00:20.460Z,1024.42
2019-03-28T12:01:20.443Z,1024.4
2019-03-28T12:02:20.671Z,1024.42
2019-03-28T12:03:20.409Z,1024.4
2019-03-28T12:04:20.390Z,1024.38
2019-03-28T12:05:20.373Z,1024.4
2019-03-28T12:06:20.352Z,1024.39
2019-03-28T12:07:20.361Z,1024.37
2019-03-28T12:08:20.368Z,1024.36